Terminal Aerodrome Forecast
Issued by NWS

Home | Current Version | Previous Version | Text Only | Print | Product List | Glossary On
Versions: 1 2 3 4 5 6 7 8 9 10 11 12 13 14 15 16 17 18 19 20 21 22 23 24 25 26 27 28 29 30 31 32 33 34 35 36 37 38 39 40 41 42 43 44 45 46 47 48 49 50
000
FTUS44 KHGX 222238 AAD
TAFLBX
TAF AMD
KLBX 222238Z 2223/2318 34013KT P6SM VCSH FEW006 SCT014
      TEMPO 2223/2224 2SM +TSRA BR SCT014CB
     FM230200 03004KT P6SM BKN025
     FM230600 08004KT 4SM BR BKN015
     FM231200 02006KT P6SM VCSH BKN010=

USA.gov is the U.S. government's official web portal to all federal, state and local government web resources and services.